Air Resources Laboratory banner image
Air Resources Laboratory web site National Oceanic and Atmospheric Administration (NOAA)

ak metar


PAKU 240045Z 08010KT 1SM R06/P6000FT BR OVC003 M07/M08 A2970=